sensor_id;sensor_type;location;lat;lon;timestamp;P1;durP1;ratioP1;P2;durP2;ratioP2
24357;SDS011;13668;52.154;5.580;2023-02-20T00:02:13;15.27;;;9.50;;
24357;SDS011;13668;52.154;5.580;2023-02-20T00:04:39;16.35;;;9.27;;
24357;SDS011;13668;52.154;5.580;2023-02-20T00:07:05;13.55;;;8.00;;
24357;SDS011;13668;52.154;5.580;2023-02-20T00:09:31;12.43;;;8.50;;
24357;SDS011;13668;52.154;5.580;2023-02-20T00:12:00;12.20;;;8.32;;
24357;SDS011;13668;52.154;5.580;2023-02-20T00:14:26;13.73;;;8.93;;
24357;SDS011;13668;52.154;5.580;2023-02-20T00:16:54;17.80;;;8.95;;
24357;SDS011;13668;52.154;5.580;2023-02-20T00:19:22;16.20;;;9.05;;
24357;SDS011;13668;52.154;5.580;2023-02-20T00:21:48;14.85;;;9.98;;
24357;SDS011;13668;52.154;5.580;2023-02-20T00:24:15;13.50;;;9.63;;
24357;SDS011;13668;52.154;5.580;2023-02-20T00:26:49;16.17;;;10.13;;
24357;SDS011;13668;52.154;5.580;2023-02-20T00:29:16;20.13;;;10.73;;
24357;SDS011;13668;52.154;5.580;2023-02-20T00:31:42;15.43;;;10.20;;
24357;SDS011;13668;52.154;5.580;2023-02-20T00:34:08;20.50;;;12.85;;
24357;SDS011;13668;52.154;5.580;2023-02-20T00:36:34;17.92;;;10.68;;
24357;SDS011;13668;52.154;5.580;2023-02-20T00:39:00;15.23;;;10.35;;
24357;SDS011;13668;52.154;5.580;2023-02-20T00:41:26;17.75;;;11.43;;
24357;SDS011;13668;52.154;5.580;2023-02-20T00:43:52;16.73;;;11.65;;
24357;SDS011;13668;52.154;5.580;2023-02-20T00:46:18;17.20;;;12.00;;
24357;SDS011;13668;52.154;5.580;2023-02-20T00:48:44;18.35;;;12.13;;
24357;SDS011;13668;52.154;5.580;2023-02-20T00:51:10;21.75;;;12.50;;
24357;SDS011;13668;52.154;5.580;2023-02-20T00:53:36;16.98;;;12.13;;
24357;SDS011;13668;52.154;5.580;2023-02-20T00:56:02;19.10;;;12.93;;
24357;SDS011;13668;52.154;5.580;2023-02-20T00:58:28;17.15;;;12.60;;
24357;SDS011;13668;52.154;5.580;2023-02-20T01:00:54;19.98;;;13.02;;
24357;SDS011;13668;52.154;5.580;2023-02-20T01:03:20;23.77;;;14.25;;
24357;SDS011;13668;52.154;5.580;2023-02-20T01:05:46;24.60;;;15.80;;
24357;SDS011;13668;52.154;5.580;2023-02-20T01:08:12;20.60;;;15.27;;
24357;SDS011;13668;52.154;5.580;2023-02-20T01:10:38;21.83;;;14.63;;
24357;SDS011;13668;52.154;5.580;2023-02-20T01:13:04;25.15;;;15.00;;
24357;SDS011;13668;52.154;5.580;2023-02-20T01:15:30;21.45;;;14.73;;
24357;SDS011;13668;52.154;5.580;2023-02-20T01:17:56;21.05;;;14.32;;
24357;SDS011;13668;52.154;5.580;2023-02-20T01:20:22;21.40;;;14.98;;
24357;SDS011;13668;52.154;5.580;2023-02-20T01:22:48;25.27;;;16.60;;
24357;SDS011;13668;52.154;5.580;2023-02-20T01:25:15;24.40;;;15.18;;
24357;SDS011;13668;52.154;5.580;2023-02-20T01:27:41;21.63;;;15.07;;
24357;SDS011;13668;52.154;5.580;2023-02-20T01:30:07;25.45;;;15.02;;
24357;SDS011;13668;52.154;5.580;2023-02-20T01:32:33;22.33;;;15.15;;
24357;SDS011;13668;52.154;5.580;2023-02-20T01:34:59;20.95;;;15.55;;
24357;SDS011;13668;52.154;5.580;2023-02-20T01:37:25;24.15;;;15.57;;
24357;SDS011;13668;52.154;5.580;2023-02-20T01:39:52;24.60;;;16.05;;
24357;SDS011;13668;52.154;5.580;2023-02-20T01:42:19;19.90;;;15.75;;
24357;SDS011;13668;52.154;5.580;2023-02-20T01:44:46;26.08;;;15.48;;
24357;SDS011;13668;52.154;5.580;2023-02-20T01:47:19;23.88;;;15.65;;
24357;SDS011;13668;52.154;5.580;2023-02-20T01:49:55;25.40;;;15.35;;
24357;SDS011;13668;52.154;5.580;2023-02-20T01:52:26;22.58;;;14.88;;
24357;SDS011;13668;52.154;5.580;2023-02-20T01:55:03;25.38;;;16.60;;
24357;SDS011;13668;52.154;5.580;2023-02-20T01:57:31;20.80;;;15.00;;
24357;SDS011;13668;52.154;5.580;2023-02-20T02:00:03;28.17;;;16.38;;
24357;SDS011;13668;52.154;5.580;2023-02-20T02:02:32;22.60;;;14.68;;
24357;SDS011;13668;52.154;5.580;2023-02-20T02:05:00;24.90;;;16.08;;
24357;SDS011;13668;52.154;5.580;2023-02-20T02:07:26;23.38;;;16.20;;
24357;SDS011;13668;52.154;5.580;2023-02-20T02:12:23;22.83;;;14.98;;
24357;SDS011;13668;52.154;5.580;2023-02-20T02:14:49;29.30;;;17.50;;
24357;SDS011;13668;52.154;5.580;2023-02-20T02:27:44;23.45;;;17.10;;
24357;SDS011;13668;52.154;5.580;2023-02-20T02:43:31;32.67;;;21.55;;
24357;SDS011;13668;52.154;5.580;2023-02-20T02:46:00;34.67;;;22.27;;
24357;SDS011;13668;52.154;5.580;2023-02-20T02:51:10;33.40;;;22.02;;
24357;SDS011;13668;52.154;5.580;2023-02-20T02:53:37;38.80;;;23.52;;
24357;SDS011;13668;52.154;5.580;2023-02-20T02:56:03;39.00;;;24.42;;
24357;SDS011;13668;52.154;5.580;2023-02-20T02:58:46;40.55;;;25.13;;
24357;SDS011;13668;52.154;5.580;2023-02-20T03:01:12;43.20;;;24.20;;
24357;SDS011;13668;52.154;5.580;2023-02-20T03:03:39;39.78;;;24.92;;
24357;SDS011;13668;52.154;5.580;2023-02-20T03:06:29;42.20;;;26.08;;
24357;SDS011;13668;52.154;5.580;2023-02-20T03:08:55;47.75;;;27.75;;
24357;SDS011;13668;52.154;5.580;2023-02-20T03:11:24;48.10;;;25.50;;
24357;SDS011;13668;52.154;5.580;2023-02-20T03:13:52;47.58;;;26.40;;
24357;SDS011;13668;52.154;5.580;2023-02-20T03:19:11;48.17;;;27.23;;
24357;SDS011;13668;52.154;5.580;2023-02-20T03:21:39;51.35;;;27.95;;
24357;SDS011;13668;52.154;5.580;2023-02-20T03:24:07;46.08;;;26.83;;
24357;SDS011;13668;52.154;5.580;2023-02-20T03:26:34;48.85;;;27.70;;
24357;SDS011;13668;52.154;5.580;2023-02-20T03:29:34;44.72;;;27.65;;
24357;SDS011;13668;52.154;5.580;2023-02-20T03:31:57;47.58;;;27.45;;
24357;SDS011;13668;52.154;5.580;2023-02-20T03:34:44;51.75;;;28.08;;
24357;SDS011;13668;52.154;5.580;2023-02-20T03:37:30;52.38;;;29.50;;
24357;SDS011;13668;52.154;5.580;2023-02-20T03:40:16;51.45;;;28.65;;
24357;SDS011;13668;52.154;5.580;2023-02-20T03:43:04;48.17;;;28.40;;
24357;SDS011;13668;52.154;5.580;2023-02-20T03:45:48;53.72;;;29.17;;
24357;SDS011;13668;52.154;5.580;2023-02-20T03:48:15;41.97;;;27.65;;
24357;SDS011;13668;52.154;5.580;2023-02-20T03:50:45;45.33;;;27.17;;
24357;SDS011;13668;52.154;5.580;2023-02-20T03:53:30;48.75;;;28.48;;
24357;SDS011;13668;52.154;5.580;2023-02-20T03:55:57;52.70;;;27.20;;
24357;SDS011;13668;52.154;5.580;2023-02-20T03:58:24;47.72;;;27.60;;
24357;SDS011;13668;52.154;5.580;2023-02-20T04:00:51;48.58;;;27.60;;
24357;SDS011;13668;52.154;5.580;2023-02-20T04:03:20;46.85;;;26.55;;
24357;SDS011;13668;52.154;5.580;2023-02-20T04:05:48;50.05;;;27.63;;
24357;SDS011;13668;52.154;5.580;2023-02-20T04:08:17;53.33;;;29.33;;
24357;SDS011;13668;52.154;5.580;2023-02-20T04:10:47;47.22;;;26.17;;
24357;SDS011;13668;52.154;5.580;2023-02-20T04:13:15;49.78;;;28.67;;
24357;SDS011;13668;52.154;5.580;2023-02-20T04:15:42;48.10;;;26.33;;
24357;SDS011;13668;52.154;5.580;2023-02-20T04:18:10;45.85;;;27.02;;
24357;SDS011;13668;52.154;5.580;2023-02-20T04:20:36;46.45;;;27.05;;
24357;SDS011;13668;52.154;5.580;2023-02-20T04:23:04;51.95;;;28.00;;
24357;SDS011;13668;52.154;5.580;2023-02-20T04:28:03;53.22;;;28.83;;
24357;SDS011;13668;52.154;5.580;2023-02-20T04:30:30;56.13;;;28.17;;
24357;SDS011;13668;52.154;5.580;2023-02-20T04:32:56;55.67;;;28.52;;
24357;SDS011;13668;52.154;5.580;2023-02-20T04:35:23;46.35;;;27.33;;
24357;SDS011;13668;52.154;5.580;2023-02-20T04:37:49;48.22;;;26.50;;
24357;SDS011;13668;52.154;5.580;2023-02-20T04:40:16;60.50;;;28.65;;
24357;SDS011;13668;52.154;5.580;2023-02-20T04:42:43;52.33;;;28.90;;
24357;SDS011;13668;52.154;5.580;2023-02-20T04:45:09;54.30;;;29.13;;
24357;SDS011;13668;52.154;5.580;2023-02-20T04:47:35;52.38;;;29.20;;
24357;SDS011;13668;52.154;5.580;2023-02-20T04:50:01;50.58;;;29.27;;
24357;SDS011;13668;52.154;5.580;2023-02-20T04:52:27;62.88;;;29.70;;
24357;SDS011;13668;52.154;5.580;2023-02-20T04:54:53;53.83;;;30.17;;
24357;SDS011;13668;52.154;5.580;2023-02-20T04:57:19;47.08;;;28.65;;
24357;SDS011;13668;52.154;5.580;2023-02-20T04:59:46;52.10;;;29.40;;
24357;SDS011;13668;52.154;5.580;2023-02-20T05:02:12;59.42;;;29.98;;
24357;SDS011;13668;52.154;5.580;2023-02-20T05:04:38;55.10;;;30.42;;
24357;SDS011;13668;52.154;5.580;2023-02-20T05:07:05;54.92;;;30.80;;
24357;SDS011;13668;52.154;5.580;2023-02-20T05:09:31;54.67;;;29.55;;
24357;SDS011;13668;52.154;5.580;2023-02-20T05:11:57;60.72;;;31.08;;
24357;SDS011;13668;52.154;5.580;2023-02-20T05:14:23;59.35;;;30.30;;
24357;SDS011;13668;52.154;5.580;2023-02-20T05:16:49;55.28;;;30.00;;
24357;SDS011;13668;52.154;5.580;2023-02-20T05:19:16;56.50;;;30.48;;
24357;SDS011;13668;52.154;5.580;2023-02-20T05:21:42;56.80;;;29.95;;
24357;SDS011;13668;52.154;5.580;2023-02-20T05:24:28;57.75;;;30.25;;
24357;SDS011;13668;52.154;5.580;2023-02-20T05:26:54;53.53;;;28.80;;
24357;SDS011;13668;52.154;5.580;2023-02-20T05:29:20;58.00;;;28.63;;
24357;SDS011;13668;52.154;5.580;2023-02-20T05:31:46;53.25;;;27.75;;
24357;SDS011;13668;52.154;5.580;2023-02-20T05:34:13;53.70;;;28.88;;
24357;SDS011;13668;52.154;5.580;2023-02-20T05:36:39;51.88;;;28.92;;
24357;SDS011;13668;52.154;5.580;2023-02-20T05:39:05;60.03;;;28.25;;
24357;SDS011;13668;52.154;5.580;2023-02-20T05:41:31;49.33;;;28.40;;
24357;SDS011;13668;52.154;5.580;2023-02-20T05:43:57;51.42;;;26.70;;
24357;SDS011;13668;52.154;5.580;2023-02-20T05:46:24;49.17;;;26.00;;
24357;SDS011;13668;52.154;5.580;2023-02-20T05:48:50;49.10;;;26.98;;
24357;SDS011;13668;52.154;5.580;2023-02-20T05:51:24;46.10;;;25.40;;
24357;SDS011;13668;52.154;5.580;2023-02-20T05:53:50;40.78;;;25.10;;
24357;SDS011;13668;52.154;5.580;2023-02-20T05:56:16;45.03;;;24.38;;
24357;SDS011;13668;52.154;5.580;2023-02-20T05:58:43;45.03;;;23.73;;
24357;SDS011;13668;52.154;5.580;2023-02-20T06:01:15;41.25;;;23.80;;
24357;SDS011;13668;52.154;5.580;2023-02-20T06:03:41;52.67;;;23.65;;
24357;SDS011;13668;52.154;5.580;2023-02-20T06:06:07;46.00;;;23.77;;
24357;SDS011;13668;52.154;5.580;2023-02-20T06:08:33;49.03;;;23.02;;
24357;SDS011;13668;52.154;5.580;2023-02-20T06:10:59;52.70;;;25.77;;
24357;SDS011;13668;52.154;5.580;2023-02-20T06:13:25;41.40;;;23.60;;
24357;SDS011;13668;52.154;5.580;2023-02-20T06:15:51;44.78;;;21.75;;
24357;SDS011;13668;52.154;5.580;2023-02-20T06:18:17;45.95;;;21.67;;
24357;SDS011;13668;52.154;5.580;2023-02-20T06:20:43;38.97;;;21.42;;
24357;SDS011;13668;52.154;5.580;2023-02-20T06:23:09;39.17;;;20.63;;
24357;SDS011;13668;52.154;5.580;2023-02-20T06:25:35;39.00;;;20.58;;
24357;SDS011;13668;52.154;5.580;2023-02-20T06:28:01;34.75;;;21.40;;
24357;SDS011;13668;52.154;5.580;2023-02-20T06:30:30;38.80;;;21.02;;
24357;SDS011;13668;52.154;5.580;2023-02-20T06:32:56;35.45;;;19.70;;
24357;SDS011;13668;52.154;5.580;2023-02-20T06:35:22;37.28;;;20.15;;
24357;SDS011;13668;52.154;5.580;2023-02-20T06:37:48;39.90;;;19.75;;
24357;SDS011;13668;52.154;5.580;2023-02-20T06:40:17;32.42;;;17.50;;
24357;SDS011;13668;52.154;5.580;2023-02-20T06:42:43;36.13;;;18.88;;
24357;SDS011;13668;52.154;5.580;2023-02-20T06:45:09;33.47;;;18.60;;
24357;SDS011;13668;52.154;5.580;2023-02-20T06:47:35;31.67;;;18.77;;
24357;SDS011;13668;52.154;5.580;2023-02-20T06:50:02;31.40;;;17.88;;
24357;SDS011;13668;52.154;5.580;2023-02-20T06:52:28;38.65;;;18.75;;
24357;SDS011;13668;52.154;5.580;2023-02-20T06:54:54;36.83;;;18.73;;
24357;SDS011;13668;52.154;5.580;2023-02-20T06:57:20;33.15;;;18.55;;
24357;SDS011;13668;52.154;5.580;2023-02-20T06:59:46;38.38;;;18.35;;
24357;SDS011;13668;52.154;5.580;2023-02-20T07:02:13;35.53;;;18.77;;
24357;SDS011;13668;52.154;5.580;2023-02-20T07:04:40;30.20;;;17.80;;
24357;SDS011;13668;52.154;5.580;2023-02-20T07:07:06;33.35;;;16.60;;
24357;SDS011;13668;52.154;5.580;2023-02-20T07:09:32;35.88;;;17.55;;
24357;SDS011;13668;52.154;5.580;2023-02-20T07:11:58;32.25;;;16.42;;
24357;SDS011;13668;52.154;5.580;2023-02-20T07:14:24;32.97;;;16.52;;
24357;SDS011;13668;52.154;5.580;2023-02-20T07:16:50;32.60;;;16.52;;
24357;SDS011;13668;52.154;5.580;2023-02-20T07:19:16;32.65;;;16.70;;
24357;SDS011;13668;52.154;5.580;2023-02-20T07:21:44;30.63;;;16.35;;
24357;SDS011;13668;52.154;5.580;2023-02-20T07:24:10;31.95;;;16.60;;
24357;SDS011;13668;52.154;5.580;2023-02-20T07:26:36;32.00;;;15.18;;
24357;SDS011;13668;52.154;5.580;2023-02-20T07:29:04;28.23;;;16.40;;
24357;SDS011;13668;52.154;5.580;2023-02-20T07:31:30;37.67;;;15.52;;
24357;SDS011;13668;52.154;5.580;2023-02-20T07:33:57;27.02;;;14.13;;
24357;SDS011;13668;52.154;5.580;2023-02-20T07:36:23;26.85;;;14.48;;
24357;SDS011;13668;52.154;5.580;2023-02-20T07:38:56;30.30;;;14.25;;
24357;SDS011;13668;52.154;5.580;2023-02-20T07:41:22;28.50;;;13.98;;
24357;SDS011;13668;52.154;5.580;2023-02-20T07:43:48;29.73;;;13.50;;
24357;SDS011;13668;52.154;5.580;2023-02-20T07:46:15;27.40;;;14.38;;
24357;SDS011;13668;52.154;5.580;2023-02-20T07:48:41;28.85;;;13.65;;
24357;SDS011;13668;52.154;5.580;2023-02-20T07:51:07;34.50;;;14.95;;
24357;SDS011;13668;52.154;5.580;2023-02-20T07:53:33;29.88;;;13.63;;
24357;SDS011;13668;52.154;5.580;2023-02-20T07:55:59;28.25;;;13.00;;
24357;SDS011;13668;52.154;5.580;2023-02-20T07:58:25;28.98;;;14.38;;
24357;SDS011;13668;52.154;5.580;2023-02-20T08:00:51;34.70;;;15.20;;
24357;SDS011;13668;52.154;5.580;2023-02-20T08:03:18;25.98;;;14.00;;
24357;SDS011;13668;52.154;5.580;2023-02-20T08:05:44;28.55;;;13.65;;
24357;SDS011;13668;52.154;5.580;2023-02-20T08:08:10;28.65;;;14.55;;
24357;SDS011;13668;52.154;5.580;2023-02-20T08:10:36;28.02;;;14.82;;
24357;SDS011;13668;52.154;5.580;2023-02-20T08:13:02;26.67;;;13.45;;
24357;SDS011;13668;52.154;5.580;2023-02-20T08:15:29;27.60;;;14.63;;
24357;SDS011;13668;52.154;5.580;2023-02-20T08:17:55;29.33;;;14.25;;
24357;SDS011;13668;52.154;5.580;2023-02-20T08:20:24;26.98;;;13.77;;
24357;SDS011;13668;52.154;5.580;2023-02-20T08:22:50;28.30;;;14.38;;
24357;SDS011;13668;52.154;5.580;2023-02-20T08:25:16;27.40;;;13.45;;
24357;SDS011;13668;52.154;5.580;2023-02-20T08:27:43;26.58;;;13.45;;
24357;SDS011;13668;52.154;5.580;2023-02-20T08:30:11;26.95;;;13.13;;
24357;SDS011;13668;52.154;5.580;2023-02-20T08:32:38;28.65;;;12.02;;
24357;SDS011;13668;52.154;5.580;2023-02-20T08:35:04;25.98;;;12.68;;
24357;SDS011;13668;52.154;5.580;2023-02-20T08:37:30;22.45;;;10.93;;
24357;SDS011;13668;52.154;5.580;2023-02-20T08:39:56;28.70;;;12.43;;
24357;SDS011;13668;52.154;5.580;2023-02-20T08:42:22;21.63;;;12.07;;
24357;SDS011;13668;52.154;5.580;2023-02-20T08:44:48;21.70;;;13.48;;
24357;SDS011;13668;52.154;5.580;2023-02-20T08:47:14;27.20;;;12.20;;
24357;SDS011;13668;52.154;5.580;2023-02-20T08:49:40;22.10;;;12.23;;
24357;SDS011;13668;52.154;5.580;2023-02-20T08:52:06;31.23;;;13.60;;
24357;SDS011;13668;52.154;5.580;2023-02-20T08:54:32;26.25;;;12.73;;
24357;SDS011;13668;52.154;5.580;2023-02-20T08:56:58;25.40;;;13.20;;
24357;SDS011;13668;52.154;5.580;2023-02-20T08:59:24;27.70;;;14.85;;
24357;SDS011;13668;52.154;5.580;2023-02-20T09:01:50;25.42;;;13.38;;
24357;SDS011;13668;52.154;5.580;2023-02-20T09:04:18;23.17;;;14.05;;
24357;SDS011;13668;52.154;5.580;2023-02-20T09:06:46;33.10;;;15.45;;
24357;SDS011;13668;52.154;5.580;2023-02-20T09:09:12;26.33;;;13.57;;
24357;SDS011;13668;52.154;5.580;2023-02-20T09:11:38;23.92;;;13.73;;
24357;SDS011;13668;52.154;5.580;2023-02-20T09:14:04;25.17;;;13.05;;
24357;SDS011;13668;52.154;5.580;2023-02-20T09:16:30;24.25;;;13.13;;
24357;SDS011;13668;52.154;5.580;2023-02-20T09:18:56;24.08;;;14.00;;
24357;SDS011;13668;52.154;5.580;2023-02-20T09:21:22;31.05;;;14.38;;
24357;SDS011;13668;52.154;5.580;2023-02-20T09:23:48;29.02;;;13.95;;
24357;SDS011;13668;52.154;5.580;2023-02-20T09:26:14;31.60;;;13.48;;
24357;SDS011;13668;52.154;5.580;2023-02-20T09:28:40;23.70;;;14.60;;
24357;SDS011;13668;52.154;5.580;2023-02-20T09:31:06;34.50;;;15.68;;
24357;SDS011;13668;52.154;5.580;2023-02-20T09:33:32;27.38;;;14.45;;
24357;SDS011;13668;52.154;5.580;2023-02-20T09:35:58;27.45;;;15.23;;
24357;SDS011;13668;52.154;5.580;2023-02-20T09:38:24;35.20;;;15.43;;
24357;SDS011;13668;52.154;5.580;2023-02-20T09:40:53;33.97;;;16.27;;
24357;SDS011;13668;52.154;5.580;2023-02-20T09:48:45;29.40;;;16.30;;
24357;SDS011;13668;52.154;5.580;2023-02-20T09:51:18;32.90;;;16.35;;
24357;SDS011;13668;52.154;5.580;2023-02-20T09:56:18;32.15;;;17.40;;
24357;SDS011;13668;52.154;5.580;2023-02-20T09:59:28;29.05;;;16.30;;
24357;SDS011;13668;52.154;5.580;2023-02-20T10:01:36;28.33;;;16.98;;
24357;SDS011;13668;52.154;5.580;2023-02-20T10:04:05;25.33;;;17.45;;
24357;SDS011;13668;52.154;5.580;2023-02-20T10:06:33;41.92;;;21.45;;
24357;SDS011;13668;52.154;5.580;2023-02-20T10:08:59;26.42;;;18.23;;
24357;SDS011;13668;52.154;5.580;2023-02-20T10:11:37;28.45;;;17.85;;
24357;SDS011;13668;52.154;5.580;2023-02-20T10:17:04;28.27;;;17.13;;
24357;SDS011;13668;52.154;5.580;2023-02-20T10:22:24;30.45;;;16.40;;
24357;SDS011;13668;52.154;5.580;2023-02-20T10:30:00;25.05;;;16.88;;
24357;SDS011;13668;52.154;5.580;2023-02-20T10:32:31;30.88;;;17.88;;
24357;SDS011;13668;52.154;5.580;2023-02-20T10:35:02;27.92;;;16.65;;
24357;SDS011;13668;52.154;5.580;2023-02-20T10:37:31;31.20;;;16.67;;
24357;SDS011;13668;52.154;5.580;2023-02-20T10:40:00;23.55;;;15.50;;
24357;SDS011;13668;52.154;5.580;2023-02-20T10:44:57;30.02;;;14.45;;
24357;SDS011;13668;52.154;5.580;2023-02-20T10:50:17;21.23;;;13.82;;
24357;SDS011;13668;52.154;5.580;2023-02-20T10:52:47;23.90;;;13.23;;
24357;SDS011;13668;52.154;5.580;2023-02-20T10:55:20;23.73;;;12.98;;
24357;SDS011;13668;52.154;5.580;2023-02-20T10:57:50;19.02;;;12.45;;
24357;SDS011;13668;52.154;5.580;2023-02-20T11:00:21;21.77;;;12.85;;
24357;SDS011;13668;52.154;5.580;2023-02-20T11:02:58;17.25;;;12.07;;
24357;SDS011;13668;52.154;5.580;2023-02-20T11:05:27;24.55;;;12.95;;
24357;SDS011;13668;52.154;5.580;2023-02-20T11:07:55;20.48;;;12.60;;
24357;SDS011;13668;52.154;5.580;2023-02-20T11:10:21;19.35;;;12.45;;
24357;SDS011;13668;52.154;5.580;2023-02-20T11:12:51;21.75;;;13.98;;
24357;SDS011;13668;52.154;5.580;2023-02-20T11:15:19;23.00;;;14.13;;
24357;SDS011;13668;52.154;5.580;2023-02-20T11:17:47;23.98;;;15.55;;
24357;SDS011;13668;52.154;5.580;2023-02-20T11:23:06;22.83;;;15.20;;
24357;SDS011;13668;52.154;5.580;2023-02-20T11:25:34;25.90;;;15.52;;
24357;SDS011;13668;52.154;5.580;2023-02-20T11:28:20;26.67;;;15.80;;
24357;SDS011;13668;52.154;5.580;2023-02-20T11:30:47;26.52;;;17.77;;
24357;SDS011;13668;52.154;5.580;2023-02-20T11:33:15;25.48;;;17.30;;
24357;SDS011;13668;52.154;5.580;2023-02-20T11:35:43;24.90;;;17.55;;
24357;SDS011;13668;52.154;5.580;2023-02-20T11:40:42;30.60;;;18.80;;
24357;SDS011;13668;52.154;5.580;2023-02-20T11:46:17;29.02;;;20.67;;
24357;SDS011;13668;52.154;5.580;2023-02-20T11:51:42;25.98;;;18.48;;
24357;SDS011;13668;52.154;5.580;2023-02-20T11:54:15;28.02;;;19.27;;
24357;SDS011;13668;52.154;5.580;2023-02-20T12:01:52;26.65;;;18.23;;
24357;SDS011;13668;52.154;5.580;2023-02-20T12:04:20;30.52;;;19.80;;
24357;SDS011;13668;52.154;5.580;2023-02-20T12:06:46;25.20;;;18.92;;
24357;SDS011;13668;52.154;5.580;2023-02-20T12:09:19;28.23;;;18.88;;
24357;SDS011;13668;52.154;5.580;2023-02-20T12:11:47;26.92;;;19.92;;
24357;SDS011;13668;52.154;5.580;2023-02-20T12:14:14;28.45;;;20.02;;
24357;SDS011;13668;52.154;5.580;2023-02-20T12:30:05;27.45;;;21.90;;
24357;SDS011;13668;52.154;5.580;2023-02-20T12:32:40;33.15;;;20.95;;
24357;SDS011;13668;52.154;5.580;2023-02-20T12:37:55;25.02;;;21.55;;
24357;SDS011;13668;52.154;5.580;2023-02-20T12:42:53;32.60;;;23.27;;
24357;SDS011;13668;52.154;5.580;2023-02-20T12:45:29;35.78;;;22.48;;
24357;SDS011;13668;52.154;5.580;2023-02-20T13:00:53;33.35;;;22.58;;
24357;SDS011;13668;52.154;5.580;2023-02-20T13:03:30;29.45;;;22.55;;
24357;SDS011;13668;52.154;5.580;2023-02-20T13:05:59;26.92;;;20.92;;
24357;SDS011;13668;52.154;5.580;2023-02-20T13:08:27;34.63;;;22.13;;
24357;SDS011;13668;52.154;5.580;2023-02-20T13:10:56;28.70;;;22.35;;
24357;SDS011;13668;52.154;5.580;2023-02-20T13:13:22;27.17;;;20.90;;
24357;SDS011;13668;52.154;5.580;2023-02-20T13:15:52;27.80;;;21.95;;
24357;SDS011;13668;52.154;5.580;2023-02-20T13:18:33;34.53;;;22.08;;
24357;SDS011;13668;52.154;5.580;2023-02-20T13:21:04;30.83;;;21.77;;
24357;SDS011;13668;52.154;5.580;2023-02-20T13:23:34;30.42;;;21.70;;
24357;SDS011;13668;52.154;5.580;2023-02-20T13:26:00;27.73;;;21.02;;
24357;SDS011;13668;52.154;5.580;2023-02-20T13:28:37;26.33;;;19.60;;
24357;SDS011;13668;52.154;5.580;2023-02-20T13:33:35;25.73;;;19.23;;
24357;SDS011;13668;52.154;5.580;2023-02-20T13:36:35;28.75;;;18.98;;
24357;SDS011;13668;52.154;5.580;2023-02-20T14:03:38;32.75;;;21.48;;
24357;SDS011;13668;52.154;5.580;2023-02-20T14:06:12;29.95;;;20.88;;
24357;SDS011;13668;52.154;5.580;2023-02-20T14:08:42;29.58;;;20.38;;
24357;SDS011;13668;52.154;5.580;2023-02-20T14:13:53;36.65;;;22.05;;
24357;SDS011;13668;52.154;5.580;2023-02-20T14:19:01;30.60;;;22.45;;
24357;SDS011;13668;52.154;5.580;2023-02-20T14:21:28;33.92;;;22.02;;
24357;SDS011;13668;52.154;5.580;2023-02-20T14:23:55;36.85;;;23.77;;
24357;SDS011;13668;52.154;5.580;2023-02-20T14:26:25;33.28;;;23.25;;
24357;SDS011;13668;52.154;5.580;2023-02-20T14:28:53;29.88;;;23.45;;
24357;SDS011;13668;52.154;5.580;2023-02-20T14:33:45;32.88;;;23.27;;
24357;SDS011;13668;52.154;5.580;2023-02-20T14:36:17;33.28;;;23.92;;
24357;SDS011;13668;52.154;5.580;2023-02-20T14:38:48;36.38;;;23.80;;
24357;SDS011;13668;52.154;5.580;2023-02-20T14:41:18;34.08;;;24.23;;
24357;SDS011;13668;52.154;5.580;2023-02-20T14:43:52;34.50;;;23.15;;
24357;SDS011;13668;52.154;5.580;2023-02-20T14:46:22;32.50;;;23.83;;
24357;SDS011;13668;52.154;5.580;2023-02-20T14:48:49;38.33;;;23.13;;
24357;SDS011;13668;52.154;5.580;2023-02-20T14:51:27;31.70;;;22.42;;
24357;SDS011;13668;52.154;5.580;2023-02-20T14:53:58;31.05;;;23.50;;
24357;SDS011;13668;52.154;5.580;2023-02-20T14:56:27;36.42;;;23.33;;
24357;SDS011;13668;52.154;5.580;2023-02-20T14:59:13;31.75;;;22.15;;
24357;SDS011;13668;52.154;5.580;2023-02-20T15:04:25;32.42;;;23.23;;
24357;SDS011;13668;52.154;5.580;2023-02-20T15:06:52;34.40;;;22.80;;
24357;SDS011;13668;52.154;5.580;2023-02-20T15:09:19;38.00;;;23.90;;
24357;SDS011;13668;52.154;5.580;2023-02-20T15:11:46;35.20;;;23.98;;
24357;SDS011;13668;52.154;5.580;2023-02-20T15:14:16;34.10;;;23.35;;
24357;SDS011;13668;52.154;5.580;2023-02-20T15:16:43;34.88;;;24.60;;
24357;SDS011;13668;52.154;5.580;2023-02-20T15:19:32;32.45;;;23.65;;
24357;SDS011;13668;52.154;5.580;2023-02-20T15:21:59;30.50;;;22.90;;
24357;SDS011;13668;52.154;5.580;2023-02-20T15:24:26;30.88;;;23.25;;
24357;SDS011;13668;52.154;5.580;2023-02-20T15:30:09;31.90;;;24.02;;
24357;SDS011;13668;52.154;5.580;2023-02-20T15:32:35;39.25;;;25.23;;
24357;SDS011;13668;52.154;5.580;2023-02-20T15:35:02;35.40;;;25.38;;
24357;SDS011;13668;52.154;5.580;2023-02-20T15:37:29;37.58;;;25.98;;
24357;SDS011;13668;52.154;5.580;2023-02-20T15:40:04;34.42;;;23.50;;
24357;SDS011;13668;52.154;5.580;2023-02-20T15:42:30;38.65;;;25.20;;
24357;SDS011;13668;52.154;5.580;2023-02-20T15:44:56;30.58;;;21.55;;
24357;SDS011;13668;52.154;5.580;2023-02-20T15:47:22;37.30;;;24.23;;
24357;SDS011;13668;52.154;5.580;2023-02-20T15:49:49;41.25;;;25.67;;
24357;SDS011;13668;52.154;5.580;2023-02-20T15:52:17;37.15;;;25.08;;
24357;SDS011;13668;52.154;5.580;2023-02-20T15:54:45;38.75;;;26.38;;
24357;SDS011;13668;52.154;5.580;2023-02-20T15:57:14;37.88;;;26.90;;
24357;SDS011;13668;52.154;5.580;2023-02-20T15:59:42;43.70;;;26.88;;
24357;SDS011;13668;52.154;5.580;2023-02-20T16:02:17;35.88;;;26.55;;
24357;SDS011;13668;52.154;5.580;2023-02-20T16:04:48;35.00;;;24.20;;
24357;SDS011;13668;52.154;5.580;2023-02-20T16:07:16;31.88;;;23.33;;
24357;SDS011;13668;52.154;5.580;2023-02-20T16:09:42;37.28;;;24.33;;
24357;SDS011;13668;52.154;5.580;2023-02-20T16:12:12;34.25;;;22.80;;
24357;SDS011;13668;52.154;5.580;2023-02-20T16:14:38;31.08;;;22.83;;
24357;SDS011;13668;52.154;5.580;2023-02-20T16:17:04;35.33;;;24.20;;
24357;SDS011;13668;52.154;5.580;2023-02-20T16:19:30;31.70;;;21.25;;
24357;SDS011;13668;52.154;5.580;2023-02-20T16:21:56;35.05;;;23.45;;
24357;SDS011;13668;52.154;5.580;2023-02-20T16:24:22;31.45;;;20.83;;
24357;SDS011;13668;52.154;5.580;2023-02-20T16:26:48;30.95;;;21.85;;
24357;SDS011;13668;52.154;5.580;2023-02-20T16:29:15;31.80;;;22.27;;
24357;SDS011;13668;52.154;5.580;2023-02-20T16:34:26;33.33;;;21.38;;
24357;SDS011;13668;52.154;5.580;2023-02-20T16:36:53;33.97;;;21.85;;
24357;SDS011;13668;52.154;5.580;2023-02-20T16:39:19;32.78;;;22.45;;
24357;SDS011;13668;52.154;5.580;2023-02-20T16:41:45;34.85;;;22.90;;
24357;SDS011;13668;52.154;5.580;2023-02-20T16:44:12;34.70;;;25.92;;
24357;SDS011;13668;52.154;5.580;2023-02-20T16:46:38;48.22;;;27.00;;
24357;SDS011;13668;52.154;5.580;2023-02-20T16:49:04;39.30;;;27.00;;
24357;SDS011;13668;52.154;5.580;2023-02-20T16:51:30;40.72;;;26.67;;
24357;SDS011;13668;52.154;5.580;2023-02-20T16:53:57;39.35;;;27.20;;
24357;SDS011;13668;52.154;5.580;2023-02-20T16:56:23;36.97;;;26.52;;
24357;SDS011;13668;52.154;5.580;2023-02-20T16:58:49;36.88;;;26.48;;